ANZ653 NZCH-NZQN
Flight info
| Callsign | ANZ653 |
|---|---|
| Flight time | N/A |
| Altitude | 16000 |
| Route | GUPUT Y266 ELRUV |
| Aircraft | A320/M-SDE3FGHIRWY/LB1 |
Departure
| Time | N/A |
|---|---|
| Airport | Christchurch International Airport (NZCH) |
Arrival
| Time | 2026-05-05 09:18 |
|---|---|
| Airport | Queenstown Airport (NZQN) |
| Time | Latitude | Longitude | Altitude | Speed | Heading |
|---|---|---|---|---|---|
| 2026-05-05 08:51 | -44.23989 | 170.75983 | 16345 ft | 401 kts | 243° |
| 2026-05-05 08:51 | -44.24933 | 170.73703 | 16349 ft | 401 kts | 243° |
| 2026-05-05 08:52 | -44.26781 | 170.69239 | 16350 ft | 401 kts | 243° |
| 2026-05-05 08:52 | -44.28180 | 170.65855 | 16355 ft | 401 kts | 243° |
| 2026-05-05 08:52 | -44.29107 | 170.63608 | 16353 ft | 401 kts | 243° |
| 2026-05-05 08:52 | -44.30494 | 170.60237 | 16355 ft | 401 kts | 243° |
| 2026-05-05 08:53 | -44.31881 | 170.56864 | 16354 ft | 401 kts | 243° |
| 2026-05-05 08:53 | -44.33268 | 170.53487 | 16358 ft | 401 kts | 243° |
| 2026-05-05 08:53 | -44.34670 | 170.50073 | 16353 ft | 400 kts | 243° |
| 2026-05-05 08:53 | -44.36034 | 170.46746 | 16357 ft | 400 kts | 243° |
| 2026-05-05 08:54 | -44.37418 | 170.43369 | 16364 ft | 400 kts | 243° |
| 2026-05-05 08:54 | -44.38802 | 170.39981 | 16365 ft | 400 kts | 244° |
| 2026-05-05 08:54 | -44.40173 | 170.36605 | 16360 ft | 400 kts | 244° |
| 2026-05-05 08:54 | -44.41546 | 170.33217 | 16366 ft | 400 kts | 244° |
| 2026-05-05 08:55 | -44.42925 | 170.29819 | 16361 ft | 400 kts | 244° |
| 2026-05-05 08:55 | -44.44305 | 170.26427 | 16368 ft | 400 kts | 244° |
| 2026-05-05 08:55 | -44.45679 | 170.23051 | 16369 ft | 400 kts | 244° |
| 2026-05-05 08:55 | -44.47059 | 170.19664 | 16376 ft | 400 kts | 244° |
| 2026-05-05 08:56 | -44.48434 | 170.16275 | 16369 ft | 399 kts | 244° |
| 2026-05-05 08:56 | -44.49802 | 170.12890 | 16372 ft | 399 kts | 244° |
| 2026-05-05 08:56 | -44.51149 | 170.09545 | 16367 ft | 399 kts | 244° |
| 2026-05-05 08:56 | -44.52512 | 170.06161 | 16372 ft | 399 kts | 244° |
| 2026-05-05 08:57 | -44.53878 | 170.02771 | 16374 ft | 399 kts | 244° |
| 2026-05-05 08:57 | -44.55243 | 169.99387 | 16366 ft | 399 kts | 244° |
| 2026-05-05 08:57 | -44.56612 | 169.96003 | 16365 ft | 399 kts | 244° |
| 2026-05-05 08:57 | -44.57975 | 169.92618 | 16372 ft | 399 kts | 244° |
| 2026-05-05 08:58 | -44.59338 | 169.89216 | 16375 ft | 399 kts | 244° |
| 2026-05-05 08:58 | -44.60702 | 169.85811 | 16370 ft | 399 kts | 244° |
| 2026-05-05 08:58 | -44.62061 | 169.82412 | 16385 ft | 399 kts | 244° |
| 2026-05-05 08:58 | -44.63413 | 169.79024 | 16379 ft | 399 kts | 244° |
| 2026-05-05 08:59 | -44.64771 | 169.75617 | 16371 ft | 398 kts | 244° |
| 2026-05-05 08:59 | -44.66111 | 169.72255 | 16373 ft | 398 kts | 244° |
| 2026-05-05 08:59 | -44.67481 | 169.68817 | 16378 ft | 398 kts | 244° |
| 2026-05-05 08:59 | -44.68817 | 169.65460 | 16374 ft | 399 kts | 244° |
| 2026-05-05 09:00 | -44.70173 | 169.62049 | 16377 ft | 399 kts | 244° |
| 2026-05-05 09:00 | -44.71522 | 169.58648 | 16376 ft | 398 kts | 244° |
| 2026-05-05 09:00 | -44.72872 | 169.55245 | 16374 ft | 398 kts | 244° |
| 2026-05-05 09:00 | -44.74226 | 169.51828 | 16379 ft | 398 kts | 244° |
| 2026-05-05 09:01 | -44.75575 | 169.48425 | 16380 ft | 399 kts | 244° |
| 2026-05-05 09:01 | -44.76922 | 169.45027 | 16375 ft | 399 kts | 244° |
| 2026-05-05 09:01 | -44.78270 | 169.41612 | 16377 ft | 398 kts | 244° |
| 2026-05-05 09:01 | -44.79597 | 169.38237 | 16375 ft | 399 kts | 244° |
| 2026-05-05 09:02 | -44.80943 | 169.34803 | 16376 ft | 398 kts | 245° |
| 2026-05-05 09:02 | -44.82030 | 169.31240 | 16371 ft | 394 kts | 256° |
| 2026-05-05 09:02 | -44.82850 | 169.27565 | 16371 ft | 393 kts | 256° |
| 2026-05-05 09:02 | -44.83673 | 169.23901 | 16374 ft | 393 kts | 256° |
| 2026-05-05 09:03 | -44.84502 | 169.20230 | 16370 ft | 393 kts | 256° |
| 2026-05-05 09:03 | -44.85332 | 169.16565 | 16369 ft | 393 kts | 256° |
| 2026-05-05 09:03 | -44.86161 | 169.12890 | 16366 ft | 393 kts | 256° |
| 2026-05-05 09:03 | -44.86987 | 169.09212 | 16365 ft | 393 kts | 256° |
| 2026-05-05 09:04 | -44.87808 | 169.05546 | 16372 ft | 393 kts | 256° |
| 2026-05-05 09:04 | -44.88628 | 169.01867 | 16368 ft | 393 kts | 256° |
| 2026-05-05 09:04 | -44.89446 | 168.98179 | 16358 ft | 393 kts | 256° |
| 2026-05-05 09:04 | -44.90262 | 168.94497 | 16356 ft | 392 kts | 257° |
| 2026-05-05 09:05 | -44.90820 | 168.90802 | 16353 ft | 388 kts | 267° |
| 2026-05-05 09:05 | -44.90882 | 168.87028 | 16354 ft | 384 kts | 276° |
| 2026-05-05 09:05 | -44.90746 | 168.83284 | 16351 ft | 383 kts | 276° |
| 2026-05-05 09:05 | -44.90611 | 168.79522 | 16351 ft | 383 kts | 276° |
| 2026-05-05 09:06 | -44.90478 | 168.75754 | 16351 ft | 383 kts | 276° |
| 2026-05-05 09:06 | -44.90347 | 168.71994 | 16354 ft | 384 kts | 276° |
| 2026-05-05 09:06 | -44.90302 | 168.68220 | 16354 ft | 386 kts | 270° |
| 2026-05-05 09:06 | -44.90753 | 168.64473 | 16352 ft | 388 kts | 258° |
| 2026-05-05 09:07 | -44.91722 | 168.60985 | 16335 ft | 376 kts | 247° |
| 2026-05-05 09:07 | -44.92879 | 168.57754 | 16128 ft | 373 kts | 247° |
| 2026-05-05 09:07 | -44.94040 | 168.54483 | 15551 ft | 372 kts | 248° |
| 2026-05-05 09:07 | -44.95193 | 168.51212 | 14917 ft | 373 kts | 249° |
| 2026-05-05 09:08 | -44.96358 | 168.47889 | 14269 ft | 370 kts | 249° |
| 2026-05-05 09:08 | -44.97458 | 168.44764 | 13587 ft | 356 kts | 249° |
| 2026-05-05 09:08 | -44.98551 | 168.41665 | 12896 ft | 344 kts | 250° |
| 2026-05-05 09:08 | -44.99604 | 168.38679 | 12223 ft | 334 kts | 250° |
| 2026-05-05 09:09 | -45.00626 | 168.35766 | 11525 ft | 327 kts | 250° |
| 2026-05-05 09:09 | -45.01632 | 168.32886 | 10625 ft | 328 kts | 250° |
| 2026-05-05 09:09 | -45.02701 | 168.30093 | 10245 ft | 321 kts | 241° |
| 2026-05-05 09:09 | -45.04175 | 168.27783 | 10074 ft | 313 kts | 226° |
| 2026-05-05 09:10 | -45.05980 | 168.26121 | 9722 ft | 309 kts | 210° |
| 2026-05-05 09:10 | -45.08036 | 168.25176 | 9351 ft | 312 kts | 193° |
| 2026-05-05 09:10 | -45.10185 | 168.25287 | 8671 ft | 322 kts | 163° |
| 2026-05-05 09:10 | -45.12088 | 168.26879 | 8124 ft | 313 kts | 136° |
| 2026-05-05 09:11 | -45.13739 | 168.28768 | 7819 ft | 299 kts | 147° |
| 2026-05-05 09:11 | -45.15413 | 168.30392 | 7506 ft | 287 kts | 133° |
| 2026-05-05 09:11 | -45.16395 | 168.32684 | 7169 ft | 260 kts | 99° |
| 2026-05-05 09:11 | -45.16489 | 168.35167 | 6967 ft | 246 kts | 74° |
| 2026-05-05 09:12 | -45.16022 | 168.37406 | 6878 ft | 232 kts | 58° |
| 2026-05-05 09:12 | -45.15273 | 168.39374 | 6723 ft | 225 kts | 55° |
| 2026-05-05 09:12 | -45.14526 | 168.41323 | 6533 ft | 227 kts | 56° |
| 2026-05-05 09:12 | -45.13783 | 168.43291 | 6245 ft | 226 kts | 57° |
| 2026-05-05 09:13 | -45.13044 | 168.45262 | 5925 ft | 228 kts | 58° |
| 2026-05-05 09:13 | -45.12301 | 168.47247 | 5606 ft | 228 kts | 58° |
| 2026-05-05 09:13 | -45.11572 | 168.49200 | 5443 ft | 223 kts | 58° |
| 2026-05-05 09:13 | -45.10839 | 168.51157 | 5011 ft | 228 kts | 59° |
| 2026-05-05 09:14 | -45.10108 | 168.53111 | 4641 ft | 221 kts | 59° |
| 2026-05-05 09:14 | -45.09392 | 168.55022 | 4328 ft | 219 kts | 59° |
| 2026-05-05 09:14 | -45.08685 | 168.56901 | 4009 ft | 211 kts | 59° |
| 2026-05-05 09:14 | -45.08004 | 168.58706 | 3689 ft | 206 kts | 59° |
| 2026-05-05 09:15 | -45.07341 | 168.60467 | 3402 ft | 197 kts | 60° |
| 2026-05-05 09:15 | -45.06721 | 168.62113 | 3180 ft | 184 kts | 60° |
| 2026-05-05 09:15 | -45.06168 | 168.63578 | 3089 ft | 167 kts | 60° |
| 2026-05-05 09:15 | -45.05646 | 168.64962 | 3092 ft | 158 kts | 60° |
| 2026-05-05 09:16 | -45.05134 | 168.66316 | 2925 ft | 155 kts | 60° |
| 2026-05-05 09:16 | -45.04587 | 168.67560 | 2557 ft | 147 kts | 50° |
| 2026-05-05 09:16 | -45.03885 | 168.68552 | 2467 ft | 141 kts | 41° |
| 2026-05-05 09:16 | -45.03220 | 168.69544 | 2319 ft | 140 kts | 51° |
| 2026-05-05 09:17 | -45.02687 | 168.70706 | 2026 ft | 142 kts | 59° |
| 2026-05-05 09:17 | -45.02274 | 168.71962 | 1698 ft | 140 kts | 66° |
| 2026-05-05 09:17 | -45.02037 | 168.73289 | 1288 ft | 139 kts | 77° |
| 2026-05-05 09:17 | -45.01850 | 168.74491 | 1174 ft | 94 kts | 77° |
| 2026-05-05 09:18 | -45.01775 | 168.74971 | 1173 ft | 10 kts | 77° |
| 2026-05-05 09:18 | -45.01759 | 168.75072 | 1174 ft | 12 kts | 77° |
| 2026-05-05 09:18 | -45.01744 | 168.75202 | 1175 ft | 16 kts | 84° |
| 2026-05-05 09:18 | -45.01724 | 168.75374 | 1174 ft | 19 kts | 72° |
| 2026-05-05 09:19 | -45.01691 | 168.75557 | 1181 ft | 20 kts | 78° |
| 2026-05-05 09:19 | -45.01688 | 168.75692 | 1181 ft | 5 kts | 132° |
| 2026-05-05 09:19 | -45.01730 | 168.75706 | 1181 ft | 7 kts | 193° |
| 2026-05-05 09:19 | -45.01758 | 168.75653 | 1182 ft | 8 kts | 250° |
| 2026-05-05 09:20 | -45.01781 | 168.75519 | 1177 ft | 17 kts | 258° |
| 2026-05-05 09:20 | -45.01812 | 168.75324 | 1172 ft | 23 kts | 257° |
| 2026-05-05 09:20 | -45.01849 | 168.75088 | 1170 ft | 27 kts | 258° |
| 2026-05-05 09:20 | -45.01890 | 168.74821 | 1173 ft | 29 kts | 257° |
| 2026-05-05 09:21 | -45.01936 | 168.74533 | 1173 ft | 31 kts | 257° |
| 2026-05-05 09:21 | -45.01979 | 168.74259 | 1177 ft | 22 kts | 257° |
| 2026-05-05 09:21 | -45.01981 | 168.74247 | 1177 ft | 0 kts | 75° |
| 2026-05-05 09:21 | -45.01987 | 168.74299 | 1173 ft | 9 kts | 144° |
| 2026-05-05 09:22 | -45.02073 | 168.74341 | 1169 ft | 16 kts | 161° |
| 2026-05-05 09:22 | -45.02130 | 168.74330 | 1170 ft | 6 kts | 250° |
| 2026-05-05 09:22 | -45.02148 | 168.74236 | 1173 ft | 8 kts | 289° |
| 2026-05-05 09:22 | -45.02117 | 168.74147 | 1170 ft | 1 kts | 294° |
| 2026-05-05 09:23 | -45.02117 | 168.74145 | 1170 ft | 1 kts | 294° |
| 2026-05-05 09:23 | -45.02109 | 168.74112 | 1168 ft | 9 kts | 281° |
| 2026-05-05 09:24 | -45.02111 | 168.74090 | 1171 ft | 1 kts | 246° |
| 2026-05-05 09:24 | -45.02124 | 168.74074 | 1171 ft | 4 kts | 222° |
| 2026-05-05 09:24 | -45.02133 | 168.74066 | 1167 ft | 0 kts | 210° |
| 2026-05-05 09:25 | -45.02134 | 168.74066 | 1167 ft | 0 kts | 207° |
| 2026-05-05 09:25 | -45.02139 | 168.74063 | 1171 ft | 2 kts | 202° |
| 2026-05-05 09:26 | -45.02147 | 168.74058 | 1168 ft | 1 kts | 205° |
| 2026-05-05 09:26 | -45.02149 | 168.74057 | 1168 ft | 0 kts | 205° |